Карточка аэропорта URMM

Внимание!
Информация на этой странице в стадии наполнения.
Если вы не увидели какой-то информации, или заметили неточность - пожалуйста сообщите нам!
Спасибо!
Команда XR-STAFF
Название аэропортаМинеральные Воды
Название аэропорта (англ.)Mineralnyye Vody
Превышение1047 ft. (319.1 m.)
Координаты44°13.608', 43°4.9799999999999'
Высота перехода7000 ft
Эшелон переходаFL80 (QNH >= 1013); FL90 (QNH 977-1012); FL100 (QNH < 977)
Коды ответчика1050-1057
Зона ОрВДРостов-на-Дону РПИ (URRV)
Данные METARURMM 232030Z 25003MPS 9999 -SHRA BKN063CB 12/10 Q1007 R30/290250 NOSIG RMK QFE727/0970
Проноз погоды (TAF)URMM 232000Z 2321/2421 26003G08MPS 9999 BKN030 TX17/2412Z TN08/2403Z TEMPO 2321/2403 6000 -SHRA BKN016 BKN030CB BECMG 2403/2404 30006G13MPS TEMPO 2404/2421 6000 -SHRA BKN016 BKN030CB
NOTAMshow/hide NOTAM
AWOS   TABLE

Информация о ВПП

ВПП Длина ВПП (м.) Покрытие Курс ВПП Частота ILS
123900Бетон115111.7
303900Бетон295109.3

Диспетчерские позиции

Позывной Наименование органа УВД Частота
URMM_APPМинводы-Подход119.3
URMM_GNDМинводы-Руление121.9
URMM_R_APPМинводы-Круг120.7
URMM_TWRМинводы-Старт128.0



Спутниковое изображение